createdAt,value
2023-06-10T00:00:06.846Z,101436.28
2023-06-10T00:02:37.125Z,101438.81
2023-06-10T00:05:04.653Z,101438.16
2023-06-10T00:07:31.545Z,101439.66
2023-06-10T00:09:58.530Z,101438.75
2023-06-10T00:12:25.484Z,101438.22
2023-06-10T00:14:54.624Z,101439.63
2023-06-10T00:17:24.088Z,101438.47
2023-06-10T00:19:51.699Z,101444.47
2023-06-10T00:22:18.755Z,101444.72
2023-06-10T00:24:45.871Z,101443.94
2023-06-10T00:27:12.806Z,101432.22
2023-06-10T00:29:40.118Z,101447.34
2023-06-10T00:32:10.201Z,101435.28
2023-06-10T00:34:37.175Z,101444.34
2023-06-10T00:37:04.354Z,101443.84
2023-06-10T00:39:31.442Z,101454.28
2023-06-10T00:41:58.588Z,101447.22
2023-06-10T00:44:27.704Z,101440.44
2023-06-10T00:46:56.918Z,101449.16
2023-06-10T00:49:23.860Z,101448.22
2023-06-10T00:51:53.907Z,101442.56
2023-06-10T00:54:23.204Z,101438.88
2023-06-10T00:56:52.926Z,101445.66
2023-06-10T00:59:20.247Z,101441.69
2023-06-10T01:01:50.201Z,101453.75
2023-06-10T01:04:18.308Z,101441.22
2023-06-10T01:07:04.103Z,101458.19
2023-06-10T01:10:00.427Z,101457.19
2023-06-10T01:13:03.945Z,101451.41
2023-06-10T01:15:32.762Z,101443.78
2023-06-10T01:18:10.627Z,101450.19
2023-06-10T01:20:41.328Z,101449.81
2023-06-10T01:23:14.793Z,101444.88
2023-06-10T01:25:50.926Z,101446.84
2023-06-10T01:28:33.759Z,101443.59
2023-06-10T01:31:37.665Z,101437.41
2023-06-10T01:34:11.992Z,101440.91
2023-06-10T01:36:41.914Z,101443.19
2023-06-10T01:39:11.772Z,101437.91
2023-06-10T01:41:39.458Z,101436.28
2023-06-10T01:44:06.424Z,101438.94
2023-06-10T01:46:36.486Z,101437.53
2023-06-10T01:49:03.737Z,101445.44
2023-06-10T01:51:32.724Z,101438.66
2023-06-10T01:53:59.731Z,101441.66
2023-06-10T01:56:26.735Z,101445.44
2023-06-10T01:58:56.609Z,101443.66
2023-06-10T02:01:23.580Z,101444.03
2023-06-10T02:03:55.189Z,101446.28
2023-06-10T02:06:22.311Z,101441.94
2023-06-10T02:08:49.245Z,101442.72
2023-06-10T02:11:16.169Z,101441.84
2023-06-10T02:13:43.118Z,101437.72
2023-06-10T02:16:15.184Z,101443.75
2023-06-10T02:18:45.235Z,101442.03
2023-06-10T02:21:12.154Z,101445.16
2023-06-10T02:23:39.137Z,101446.47
2023-06-10T02:26:09.374Z,101450.38
2023-06-10T02:28:38.881Z,101458.56
2023-06-10T02:31:06.502Z,101456.88
2023-06-10T02:33:34.891Z,101463.28
2023-06-10T02:36:01.911Z,101462.34
2023-06-10T02:38:28.830Z,101462.34
2023-06-10T02:40:56.024Z,101462.16
2023-06-10T02:43:25.279Z,101466.94
2023-06-10T02:45:52.218Z,101473.84
2023-06-10T02:48:23.869Z,101462.25
2023-06-10T02:50:50.807Z,101470.63
2023-06-10T02:53:19.880Z,101464.41
2023-06-10T02:55:46.792Z,101474.78
2023-06-10T02:58:13.854Z,101474.97
2023-06-10T03:00:42.209Z,101469.13
2023-06-10T03:03:09.609Z,101478.28
2023-06-10T03:05:36.653Z,101473.19
2023-06-10T03:08:03.740Z,101466.47
2023-06-10T03:10:35.870Z,101463.28
2023-06-10T03:13:06.045Z,101471.41
2023-06-10T03:15:37.429Z,101475.56
2023-06-10T03:18:04.592Z,101474.59
2023-06-10T03:20:31.816Z,101479.22
2023-06-10T03:23:01.488Z,101475.75
2023-06-10T03:25:29.842Z,101487.06
2023-06-10T03:27:56.883Z,101479.16
2023-06-10T03:30:26.149Z,101479.81
2023-06-10T03:32:53.129Z,101489.16
2023-06-10T03:35:20.245Z,101477.06
2023-06-10T03:37:47.602Z,101483.84
2023-06-10T03:40:16.964Z,101478.13
2023-06-10T03:42:45.175Z,101481.22
2023-06-10T03:45:14.604Z,101474.97
2023-06-10T03:47:45.034Z,101472.00
2023-06-10T03:50:14.496Z,101474.34
2023-06-10T03:52:42.088Z,101469.56
2023-06-10T03:55:09.810Z,101475.13
2023-06-10T03:57:36.991Z,101474.16
2023-06-10T04:00:13.478Z,101471.22
2023-06-10T04:02:47.536Z,101475.75
2023-06-10T04:05:16.489Z,101471.19
2023-06-10T04:07:44.975Z,101469.53
2023-06-10T04:10:13.053Z,101476.41
2023-06-10T04:12:40.707Z,101481.03
2023-06-10T04:15:08.479Z,101479.50
2023-06-10T04:17:36.278Z,101479.34
2023-06-10T04:20:05.053Z,101481.50
2023-06-10T04:22:31.973Z,101474.88
2023-06-10T04:25:01.565Z,101480.19
2023-06-10T04:27:28.901Z,101482.00
2023-06-10T04:29:55.784Z,101480.78
2023-06-10T04:32:25.206Z,101481.03
2023-06-10T04:34:54.759Z,101479.25
2023-06-10T04:37:21.935Z,101487.72
2023-06-10T04:39:48.956Z,101482.91
2023-06-10T04:42:16.123Z,101482.81
2023-06-10T04:44:47.765Z,101484.28
2023-06-10T04:47:18.215Z,101484.31
2023-06-10T04:49:45.639Z,101485.41
2023-06-10T04:52:12.650Z,101487.31
2023-06-10T04:54:42.612Z,101479.44
2023-06-10T04:57:09.602Z,101488.47
2023-06-10T04:59:38.707Z,101490.88
2023-06-10T05:02:06.633Z,101479.81
2023-06-10T05:04:38.258Z,101482.22
2023-06-10T05:07:06.081Z,101496.44
2023-06-10T05:09:34.092Z,101493.41
2023-06-10T05:12:03.907Z,101497.47
2023-06-10T05:14:30.786Z,101483.84
2023-06-10T05:17:07.139Z,101486.88
2023-06-10T05:19:34.276Z,101491.22
2023-06-10T05:22:04.024Z,101487.44
2023-06-10T05:24:30.918Z,101494.63
2023-06-10T05:27:00.538Z,101495.88
2023-06-10T05:29:29.712Z,101498.06
2023-06-10T05:31:58.798Z,101501.94
2023-06-10T05:34:28.791Z,101500.25
2023-06-10T05:36:55.780Z,101499.38
2023-06-10T05:39:25.921Z,101502.50
2023-06-10T05:41:55.304Z,101506.97
2023-06-10T05:44:24.434Z,101490.56
2023-06-10T05:46:54.404Z,101484.19
2023-06-10T05:49:21.383Z,101484.31
2023-06-10T05:51:48.345Z,101480.16
2023-06-10T05:54:15.261Z,101474.03
2023-06-10T05:56:42.207Z,101472.94
2023-06-10T05:59:09.409Z,101486.03
2023-06-10T06:01:38.503Z,101473.31
2023-06-10T06:04:07.824Z,101471.97
2023-06-10T06:06:39.417Z,101477.50
2023-06-10T06:09:09.821Z,101479.63
2023-06-10T06:11:36.912Z,101475.84
2023-06-10T06:14:03.909Z,101477.47
2023-06-10T06:16:36.392Z,101477.06
2023-06-10T06:19:03.382Z,101458.28
2023-06-10T06:21:37.516Z,101460.91
2023-06-10T06:24:09.815Z,101465.94
2023-06-10T06:26:39.346Z,101462.13
2023-06-10T06:29:06.417Z,101459.44
2023-06-10T06:31:33.385Z,101455.25
2023-06-10T06:34:00.599Z,101457.78
2023-06-10T06:36:30.017Z,101454.00
2023-06-10T06:38:57.070Z,101467.41
2023-06-10T06:41:24.034Z,101469.97
2023-06-10T06:43:50.928Z,101470.38
2023-06-10T06:46:19.950Z,101466.53
2023-06-10T06:48:47.123Z,101470.56
2023-06-10T06:51:14.288Z,101472.91
2023-06-10T06:53:45.435Z,101474.72
2023-06-10T06:56:13.379Z,101475.19
2023-06-10T06:58:44.810Z,101466.31
2023-06-10T07:01:11.719Z,101485.34
2023-06-10T07:03:38.635Z,101476.44
2023-06-10T07:06:08.046Z,101488.69
2023-06-10T07:11:01.898Z,101479.63
2023-06-10T07:13:28.873Z,101489.81
2023-06-10T07:15:55.778Z,101485.38
2023-06-10T07:18:22.745Z,101492.78
2023-06-10T07:20:49.858Z,101491.72
2023-06-10T07:23:23.895Z,101495.53
2023-06-10T07:25:53.044Z,101498.69
2023-06-10T07:28:20.005Z,101495.03
2023-06-10T07:30:49.269Z,101502.88
2023-06-10T07:33:16.285Z,101503.00
2023-06-10T07:35:48.440Z,101498.75
2023-06-10T07:38:15.515Z,101500.13
2023-06-10T07:40:42.455Z,101493.69
2023-06-10T07:43:11.548Z,101492.88
2023-06-10T07:45:40.854Z,101502.13
2023-06-10T07:48:10.354Z,101505.88
2023-06-10T07:50:41.408Z,101496.94
2023-06-10T07:53:10.878Z,101495.69
2023-06-10T07:55:37.864Z,101495.03
2023-06-10T07:58:06.868Z,101491.28
2023-06-10T08:00:33.745Z,101486.13
2023-06-10T08:03:02.876Z,101493.19
2023-06-10T08:05:30.235Z,101486.06
2023-06-10T08:08:01.376Z,101481.44
2023-06-10T08:10:32.975Z,101486.00
2023-06-10T08:13:02.424Z,101491.63
2023-06-10T08:15:29.592Z,101487.91
2023-06-10T08:17:59.600Z,101485.88
2023-06-10T08:20:30.869Z,101485.13
2023-06-10T08:22:57.767Z,101485.13
2023-06-10T08:25:24.791Z,101478.22
2023-06-10T08:27:53.072Z,101487.00
2023-06-10T08:30:20.042Z,101486.34
2023-06-10T08:32:49.604Z,101481.81
2023-06-10T08:35:16.533Z,101478.16
2023-06-10T08:37:46.409Z,101484.81
2023-06-10T08:40:16.364Z,101482.13
2023-06-10T08:43:14.101Z,101480.09
2023-06-10T08:45:47.146Z,101481.41
2023-06-10T08:48:16.165Z,101485.50
2023-06-10T08:50:43.563Z,101481.75
2023-06-10T08:53:19.615Z,101481.72
2023-06-10T08:55:55.066Z,101475.00
2023-06-10T08:58:22.412Z,101478.41
2023-06-10T09:00:54.851Z,101478.75
2023-06-10T09:03:23.073Z,101482.09
2023-06-10T09:05:51.068Z,101485.94
2023-06-10T09:08:18.347Z,101479.41
2023-06-10T09:10:45.352Z,101477.16
2023-06-10T09:13:12.279Z,101478.59
2023-06-10T09:15:41.325Z,101486.38
2023-06-10T09:18:08.544Z,101478.00
2023-06-10T09:20:40.571Z,101482.00
2023-06-10T09:23:10.792Z,101480.94
2023-06-10T09:25:40.704Z,101475.38
2023-06-10T09:28:16.082Z,101487.22
2023-06-10T09:30:45.587Z,101479.97
2023-06-10T09:33:17.261Z,101475.16
2023-06-10T09:35:56.902Z,101478.44
2023-06-10T09:38:31.020Z,101479.47
2023-06-10T09:40:57.923Z,101477.31
2023-06-10T09:43:39.763Z,101481.09
2023-06-10T09:46:09.417Z,101475.66
2023-06-10T09:48:42.699Z,101472.81
2023-06-10T09:51:18.333Z,101464.53
2023-06-10T09:53:55.443Z,101470.31
2023-06-10T09:56:34.296Z,101468.09
2023-06-10T09:59:01.266Z,101460.19
2023-06-10T10:01:31.394Z,101463.91
2023-06-10T10:03:58.906Z,101472.53
2023-06-10T10:06:26.921Z,101464.84
2023-06-10T10:08:55.273Z,101467.78
2023-06-10T10:11:23.923Z,101469.16
2023-06-10T10:13:56.168Z,101453.03
2023-06-10T10:16:39.980Z,101461.06
2023-06-10T10:19:28.866Z,101464.34
2023-06-10T10:22:03.104Z,101461.88
2023-06-10T10:24:38.012Z,101468.53
2023-06-10T10:27:50.286Z,101467.31
2023-06-10T10:30:24.330Z,101459.00
2023-06-10T10:33:02.778Z,101460.63
2023-06-10T10:35:31.724Z,101460.66
2023-06-10T10:38:01.036Z,101457.59
2023-06-10T10:40:30.562Z,101458.91
2023-06-10T10:43:01.610Z,101462.31
2023-06-10T10:45:34.681Z,101463.69
2023-06-10T10:48:12.674Z,101447.38
2023-06-10T10:50:42.313Z,101445.34
2023-06-10T10:53:09.627Z,101451.53
2023-06-10T10:55:39.731Z,101452.75
2023-06-10T10:58:13.105Z,101450.66
2023-06-10T11:00:46.278Z,101449.88
2023-06-10T11:03:20.899Z,101452.94
2023-06-10T11:05:52.220Z,101454.06
2023-06-10T11:08:34.350Z,101449.59
2023-06-10T11:11:01.395Z,101445.09
2023-06-10T11:13:28.941Z,101441.16
2023-06-10T11:15:59.540Z,101437.53
2023-06-10T11:18:42.663Z,101448.41
2023-06-10T11:21:11.663Z,101443.41
2023-06-10T11:23:43.278Z,101432.13
2023-06-10T11:26:44.687Z,101433.88
2023-06-10T11:29:11.863Z,101444.19
2023-06-10T11:31:50.574Z,101439.34
2023-06-10T11:34:28.204Z,101436.16
2023-06-10T11:36:58.698Z,101426.91
2023-06-10T11:39:27.779Z,101425.16
2023-06-10T11:41:55.198Z,101426.66
2023-06-10T11:44:28.957Z,101425.38
2023-06-10T11:47:00.194Z,101426.31
2023-06-10T11:49:30.346Z,101423.91
2023-06-10T11:51:59.677Z,101423.97
2023-06-10T11:54:26.826Z,101423.22
2023-06-10T11:57:01.102Z,101420.19
2023-06-10T11:59:32.172Z,101418.47
2023-06-10T12:02:04.762Z,101424.31
2023-06-10T12:04:31.806Z,101417.84
2023-06-10T12:06:58.808Z,101406.03
2023-06-10T12:09:34.223Z,101406.97
2023-06-10T12:12:09.880Z,101416.91
2023-06-10T12:14:57.030Z,101405.94
2023-06-10T12:17:39.528Z,101408.84
2023-06-10T12:20:26.381Z,101408.47
2023-06-10T12:22:53.824Z,101404.13
2023-06-10T12:25:27.856Z,101401.19
2023-06-10T12:27:58.422Z,101410.94
2023-06-10T12:30:31.425Z,101401.53
2023-06-10T12:32:59.176Z,101391.69
2023-06-10T12:35:29.739Z,101395.22
2023-06-10T12:37:58.789Z,101396.19
2023-06-10T12:40:33.802Z,101385.56
2023-06-10T12:43:02.241Z,101395.06
2023-06-10T12:45:34.394Z,101390.84
2023-06-10T12:48:26.194Z,101372.03
2023-06-10T12:50:57.696Z,101381.25
2023-06-10T12:53:25.749Z,101370.47
2023-06-10T12:55:55.376Z,101368.63
2023-06-10T12:58:25.804Z,101372.91
2023-06-10T13:00:54.924Z,101373.34
2023-06-10T13:03:22.697Z,101370.94
2023-06-10T13:05:51.983Z,101361.22
2023-06-10T13:08:19.200Z,101366.03
2023-06-10T13:10:50.774Z,101366.81
2023-06-10T13:13:18.713Z,101364.84
2023-06-10T13:15:48.332Z,101364.34
2023-06-10T13:18:15.336Z,101361.81
2023-06-10T13:20:42.360Z,101356.34
2023-06-10T13:23:11.599Z,101349.59
2023-06-10T13:25:42.110Z,101346.03
2023-06-10T13:28:09.055Z,101347.38
2023-06-10T13:30:38.555Z,101342.34
2023-06-10T13:33:07.836Z,101334.97
2023-06-10T13:35:34.916Z,101331.09
2023-06-10T13:38:04.179Z,101327.16
2023-06-10T13:40:31.365Z,101322.00
2023-06-10T13:42:58.482Z,101318.03
2023-06-10T13:45:26.009Z,101317.44
2023-06-10T13:47:53.105Z,101321.31
2023-06-10T13:50:20.455Z,101315.28
2023-06-10T13:52:47.429Z,101310.34
2023-06-10T13:55:18.585Z,101308.00
2023-06-10T13:57:47.633Z,101311.47
2023-06-10T14:00:18.258Z,101309.44
2023-06-10T14:02:45.891Z,101313.34
2023-06-10T14:05:19.927Z,101304.41
2023-06-10T14:07:47.074Z,101307.03
2023-06-10T14:10:14.043Z,101306.63
2023-06-10T14:12:41.089Z,101310.44
2023-06-10T14:15:12.125Z,101299.25
2023-06-10T14:17:41.526Z,101300.00
2023-06-10T14:20:14.322Z,101304.66
2023-06-10T14:22:41.637Z,101306.63
2023-06-10T14:25:09.577Z,101306.00
2023-06-10T14:27:36.739Z,101294.97
2023-06-10T14:30:06.764Z,101301.06
2023-06-10T14:32:34.030Z,101306.50
2023-06-10T14:35:01.327Z,101295.28
2023-06-10T14:37:30.861Z,101304.72
2023-06-10T14:40:00.697Z,101285.19
2023-06-10T14:42:30.478Z,101289.72
2023-06-10T14:44:57.482Z,101299.13
2023-06-10T14:47:24.772Z,101286.16
2023-06-10T14:49:54.074Z,101289.47
2023-06-10T14:52:21.010Z,101291.44
2023-06-10T14:54:50.312Z,101288.47
2023-06-10T14:57:17.436Z,101291.88
2023-06-10T14:59:44.459Z,101292.22
2023-06-10T15:02:14.404Z,101301.53
2023-06-10T15:04:41.396Z,101297.19
2023-06-10T15:07:11.064Z,101294.66
2023-06-10T15:09:40.089Z,101293.31
2023-06-10T15:12:07.700Z,101284.56
2023-06-10T15:14:34.674Z,101288.94
2023-06-10T15:17:01.751Z,101291.31
2023-06-10T15:19:31.389Z,101274.09
2023-06-10T15:22:01.379Z,101286.28
2023-06-10T15:24:28.391Z,101285.22
2023-06-10T15:26:58.383Z,101284.09
2023-06-10T15:29:28.027Z,101277.84
2023-06-10T15:32:00.017Z,101284.47
2023-06-10T15:34:29.586Z,101276.66
2023-06-10T15:36:59.623Z,101275.28
2023-06-10T15:39:28.376Z,101276.19
2023-06-10T15:41:57.808Z,101267.38
2023-06-10T15:44:27.282Z,101273.88
2023-06-10T15:46:54.378Z,101273.44
2023-06-10T15:49:21.338Z,101271.81
2023-06-10T15:51:53.000Z,101273.44
2023-06-10T15:54:20.034Z,101265.81
2023-06-10T15:56:47.021Z,101278.59
2023-06-10T15:59:14.181Z,101272.72
2023-06-10T16:01:41.187Z,101269.56
2023-06-10T16:04:13.312Z,101264.16
2023-06-10T16:06:40.554Z,101262.88
2023-06-10T16:09:10.207Z,101261.78
2023-06-10T16:11:37.331Z,101269.91
2023-06-10T16:14:04.413Z,101267.94
2023-06-10T16:16:31.463Z,101277.97
2023-06-10T16:18:58.875Z,101272.00
2023-06-10T16:21:26.224Z,101274.38
2023-06-10T16:23:53.432Z,101282.72
2023-06-10T16:26:23.332Z,101272.72
2023-06-10T16:28:50.444Z,101277.44
2023-06-10T16:31:17.538Z,101287.00
2023-06-10T16:33:44.532Z,101278.13
2023-06-10T16:36:11.497Z,101286.34
2023-06-10T16:38:38.418Z,101289.13
2023-06-10T16:41:05.412Z,101277.94
2023-06-10T16:43:34.925Z,101277.84
2023-06-10T16:46:02.098Z,101274.59
2023-06-10T16:48:31.255Z,101278.50
2023-06-10T16:50:58.432Z,101275.41
2023-06-10T16:53:25.324Z,101288.75
2023-06-10T16:55:52.367Z,101286.44
2023-06-10T16:58:19.328Z,101278.47
2023-06-10T17:00:46.964Z,101275.13
2023-06-10T17:03:17.752Z,101276.19
2023-06-10T17:05:47.986Z,101279.78
2023-06-10T17:08:19.977Z,101289.75
2023-06-10T17:10:47.007Z,101279.84
2023-06-10T17:13:14.060Z,101286.38
2023-06-10T17:15:41.795Z,101280.00
2023-06-10T17:18:11.920Z,101291.78
2023-06-10T17:20:39.051Z,101293.13
2023-06-10T17:23:11.702Z,101292.00
2023-06-10T17:25:38.810Z,101295.50
2023-06-10T17:28:09.012Z,101297.69
2023-06-10T17:30:36.136Z,101293.25
2023-06-10T17:33:03.278Z,101293.81
2023-06-10T17:35:30.460Z,101301.84
2023-06-10T17:38:00.673Z,101298.50
2023-06-10T17:40:29.957Z,101302.44
2023-06-10T17:43:00.190Z,101311.59
2023-06-10T17:45:33.025Z,101299.75
2023-06-10T17:48:00.078Z,101311.56
2023-06-10T17:50:30.006Z,101304.59
2023-06-10T17:52:56.893Z,101305.47
2023-06-10T17:55:26.719Z,101306.91
2023-06-10T17:57:58.464Z,101305.75
2023-06-10T18:00:31.158Z,101296.31
2023-06-10T18:02:58.251Z,101300.78
2023-06-10T18:05:25.325Z,101308.03
2023-06-10T18:07:55.426Z,101314.25
2023-06-10T18:10:22.505Z,101314.19
2023-06-10T18:12:49.481Z,101321.50
2023-06-10T18:15:16.513Z,101315.09
2023-06-10T18:17:46.217Z,101319.31
2023-06-10T18:20:14.476Z,101312.88
2023-06-10T18:22:41.462Z,101322.66
2023-06-10T18:25:09.036Z,101325.34
2023-06-10T18:27:39.494Z,101327.59
2023-06-10T18:30:10.421Z,101335.41
2023-06-10T18:32:37.569Z,101336.78
2023-06-10T18:35:07.751Z,101337.56
2023-06-10T18:37:35.118Z,101334.19
2023-06-10T18:40:02.323Z,101338.44
2023-06-10T18:42:31.396Z,101348.31
2023-06-10T18:45:03.269Z,101350.47
2023-06-10T18:47:40.842Z,101358.28
2023-06-10T18:50:16.226Z,101359.94
2023-06-10T18:52:43.170Z,101371.28
2023-06-10T18:55:10.403Z,101373.31
2023-06-10T18:57:37.481Z,101383.16
2023-06-10T19:00:07.404Z,101382.75
2023-06-10T19:02:37.377Z,101385.03
2023-06-10T19:05:04.817Z,101391.34
2023-06-10T19:07:32.120Z,101407.47
2023-06-10T19:10:03.872Z,101428.75
2023-06-10T19:12:30.853Z,101445.97
2023-06-10T19:14:57.903Z,101446.09
2023-06-10T19:17:24.964Z,101459.94
2023-06-10T19:19:53.975Z,101475.06
2023-06-10T19:22:23.430Z,101480.03
2023-06-10T19:25:08.534Z,101484.19
2023-06-10T19:27:38.010Z,101489.59
2023-06-10T19:30:11.239Z,101495.75
2023-06-10T19:32:38.426Z,101490.34
2023-06-10T19:35:08.958Z,101498.03
2023-06-10T19:37:36.176Z,101487.53
2023-06-10T19:40:08.271Z,101496.94
2023-06-10T19:42:39.792Z,101487.78
2023-06-10T19:45:09.545Z,101503.22
2023-06-10T19:47:41.439Z,101506.22
2023-06-10T19:50:14.272Z,101503.81
2023-06-10T19:52:41.459Z,101506.34
2023-06-10T19:55:09.598Z,101517.19
2023-06-10T19:57:39.734Z,101510.22
2023-06-10T20:00:08.774Z,101510.81
2023-06-10T20:02:38.353Z,101515.41
2023-06-10T20:05:08.049Z,101510.09
2023-06-10T20:07:37.306Z,101503.59
2023-06-10T20:10:04.851Z,101495.88
2023-06-10T20:12:31.882Z,101497.56
2023-06-10T20:15:01.807Z,101508.13
2023-06-10T20:17:28.934Z,101518.13
2023-06-10T20:19:56.158Z,101515.78
2023-06-10T20:22:23.155Z,101528.81
2023-06-10T20:24:55.988Z,101525.78
2023-06-10T20:27:25.560Z,101524.06
2023-06-10T20:29:57.196Z,101533.66
2023-06-10T20:32:24.853Z,101523.88
2023-06-10T20:34:52.234Z,101529.34
2023-06-10T20:37:19.311Z,101529.72
2023-06-10T20:39:53.304Z,101530.69
2023-06-10T20:42:22.748Z,101534.47
2023-06-10T20:44:52.804Z,101530.72
2023-06-10T20:47:22.766Z,101535.44
2023-06-10T20:49:52.498Z,101528.41
2023-06-10T20:52:22.411Z,101529.63
2023-06-10T20:54:51.654Z,101537.59
2023-06-10T20:57:21.827Z,101535.03
2023-06-10T20:59:49.203Z,101533.50
2023-06-10T21:02:16.260Z,101527.06
2023-06-10T21:04:43.277Z,101529.63
2023-06-10T21:07:10.654Z,101530.16
2023-06-10T21:09:37.567Z,101536.53
2023-06-10T21:12:05.166Z,101537.19
2023-06-10T21:14:32.138Z,101541.00
2023-06-10T21:16:59.235Z,101542.56
2023-06-10T21:19:26.122Z,101548.44
2023-06-10T21:21:55.292Z,101549.69
2023-06-10T21:24:22.262Z,101543.84
2023-06-10T21:26:49.239Z,101543.38
2023-06-10T21:29:19.172Z,101544.38
2023-06-10T21:31:51.188Z,101549.69
2023-06-10T21:34:22.870Z,101556.59
2023-06-10T21:36:52.030Z,101560.75
2023-06-10T21:39:21.921Z,101572.75
2023-06-10T21:41:51.145Z,101567.50
2023-06-10T21:44:18.036Z,101562.66
2023-06-10T21:46:44.982Z,101567.94
2023-06-10T21:49:16.425Z,101564.28
2023-06-10T21:51:45.676Z,101574.28
2023-06-10T21:54:13.508Z,101579.66
2023-06-10T21:56:40.904Z,101577.81
2023-06-10T21:59:07.785Z,101577.91
2023-06-10T22:01:36.715Z,101578.09
2023-06-10T22:04:03.991Z,101578.53
2023-06-10T22:06:34.709Z,101574.34
2023-06-10T22:09:04.199Z,101573.22
2023-06-10T22:11:31.210Z,101574.88
2023-06-10T22:13:58.156Z,101576.63
2023-06-10T22:16:25.136Z,101577.78
2023-06-10T22:18:54.612Z,101574.78
2023-06-10T22:21:26.161Z,101581.31
2023-06-10T22:23:55.680Z,101579.97
2023-06-10T22:26:36.865Z,101581.19
2023-06-10T22:29:13.011Z,101585.19
2023-06-10T22:31:39.980Z,101583.84
2023-06-10T22:34:06.926Z,101580.44
2023-06-10T22:36:37.343Z,101583.03
2023-06-10T22:39:12.761Z,101580.94
2023-06-10T22:41:41.012Z,101581.66
2023-06-10T22:44:07.965Z,101582.69
2023-06-10T22:46:37.618Z,101584.38
2023-06-10T22:49:04.827Z,101584.00
2023-06-10T22:51:34.590Z,101573.00
2023-06-10T22:54:01.455Z,101579.78
2023-06-10T22:56:28.455Z,101575.59
2023-06-10T22:58:58.436Z,101577.72
2023-06-10T23:01:25.521Z,101581.97
2023-06-10T23:03:55.524Z,101582.19
2023-06-10T23:06:22.803Z,101578.56
2023-06-10T23:08:51.887Z,101581.53
2023-06-10T23:11:18.894Z,101582.81
2023-06-10T23:13:45.887Z,101581.53
2023-06-10T23:16:15.872Z,101584.09
2023-06-10T23:18:42.832Z,101579.00
2023-06-10T23:21:15.777Z,101585.56
2023-06-10T23:23:46.089Z,101584.72
2023-06-10T23:26:13.110Z,101581.56
2023-06-10T23:28:39.976Z,101582.41
2023-06-10T23:31:08.935Z,101594.25
2023-06-10T23:33:36.057Z,101594.66
2023-06-10T23:36:06.175Z,101594.47
2023-06-10T23:38:35.656Z,101600.63
2023-06-10T23:41:02.582Z,101603.16
2023-06-10T23:43:29.500Z,101606.56
2023-06-10T23:45:56.425Z,101605.69
2023-06-10T23:48:25.759Z,101604.81
2023-06-10T23:50:55.982Z,101608.19
2023-06-10T23:53:25.309Z,101592.94
2023-06-10T23:55:52.317Z,101592.06
2023-06-10T23:58:19.516Z,101602.19
